Detall de PIREP

Printer-friendly versionPDF version

[2014/08/30 15:45:00]
Flight IATA:CT1051
Pilot Number:042
Company ICAO:CAT
Aircraft Type:A320/E
PAX:10
Departing Airport: LFKJ
Destination Airport: LICJ
Alternate Airport:LICJ
Online: VATSIM
Route:CORSI M858 RAMEN M732 CAR M871 KAPIL
Flight Level:F190
No Slew and time accel
No pause
Crash detect
Detect pilot in Cockpit between each 30 and 45 minutes
15:45 Zero fuel Weight: 124281 Lbs, Fuel Weight: 42202 Lbs
15:45 VATSIM:LFKJ 301500Z 21009KT 9999 FEW043 27/21 Q1015 NOSIG
15:45 VATSIM:LICJ 301520Z 35008KT 9999 FEW020 28/21 Q1016
15:52 Parking Brakes off
15:57 Take-off
15:57 Take off Weight: 165323 Lbs
15:57 Wind: 269º @ 008 Knots Heading: 202º
15:57 POS N41º 54´ 35´´ E008º 47´ 39´´
15:57 Gear Up: 138 Knots
15:57 Flaps:3 at 138 Knots
15:58 Flaps:2 at 148 Knots
15:58 Flaps:0 at 152 Knots
16:04 TOC
16:04 Fuel Weight: 39041 Lb
16:12 Wind:270º@025 Knots Heading: 179º Ground Speed: 395 Knots Altitude 18986 ft
16:27 Wind:270º@025 Knots Heading: 123º Ground Speed: 439 Knots Altitude 22985 ft
16:42 Wind:270º@025 Knots Heading: 110º Ground Speed: 441 Knots Altitude 22982 ft
16:54 TOD
16:54 Fuel Weight: 34333 Lb
16:57 Wind:270º@023 Knots Heading: 104º Ground Speed: 302 Knots Altitude 15167 ft
17:05 Flaps:1 at 217 Knots
17:08 Gear Down: 188 Knots
17:08 Flaps:3 at 188 Knots
17:09 Flaps:4 at 155 Knots
17:10 Flaps:5 at 155 Knots
17:12 Wind:269º@008 Knots Heading: 247º Ground Speed: 147 Knots Altitude 141 ft
17:12 TouchDown:Rate -406 ft/min Speed: 137 Knots
17:12 VATSIM:LICJ 301650Z 01007KT 9999 FEW025 27/21 Q1015
17:12 Land
17:12 Wind:269º@008 Knots
17:12 Heading: 248º
17:12 Flight Duration: 01:15
17:12 Landing Weight: 157686 Lbs
17:12 POS N38º 10´ 53´´ E013º 06´ 26´´
17:15 Parking brakes on
17:15 Block to Block Duration: 01:23
17:15 Final Fuel: 33026 Lbls
17:15 Spent Fuel: 9175 Lbls
17:15 Flight Length: 450 NM
17:15 TOD Land Length: 73 NM

Exportar CSV

Powered by Drupal - Modified by Danger4k